Narowal Weather



Narowal's Current Weather

Temprature 6o fog

fog

Rain: 0 %

Min Temprature6o
Max Temprature6o
Humidity100
Wind Speed1.52 m/h
Sun Rise07:00:43
Sun Set17:20:34
Current Time: 18-Jan-2021 06:32:42
Lat/Lon: 32.1, 74.8833




Narowal's Geo Location



Narowal's Weather Forecast

Time Overall Temp Min Temp Max Temp Humidity Wind Speed Rain
18-Jan-2021 (Mon)
08:00:00 scattered clouds 7.490 7.490 9.050 83 1.07 m/h 0 %
11:00:00 few clouds 15.130 15.130 17.640 54 1.56 m/h 0 %
14:00:00 clear sky 19.710 19.710 20.650 37 1.02 m/h 0 %
17:00:00 clear sky 15.740 15.740 15.820 46 0.63 m/h 0 %
20:00:00 clear sky 12.030 12.030 12.030 52 1.63 m/h 0 %
23:00:00 clear sky 10.580 10.580 10.580 53 1.82 m/h 0 %
19-Jan-2021 (Tue)
02:00:00 clear sky 9.500 9.500 9.500 57 2.39 m/h 0 %
05:00:00 clear sky 8.410 8.410 8.410 63 1.74 m/h 0 %
08:00:00 clear sky 9.780 9.780 9.780 64 1.36 m/h 0 %
11:00:00 clear sky 17.810 17.810 17.810 41 2.32 m/h 0 %
14:00:00 clear sky 21.310 21.310 21.310 31 2.9 m/h 0 %
17:00:00 clear sky 16.800 16.800 16.800 45 2.78 m/h 0 %
20:00:00 clear sky 12.400 12.400 12.400 51 1.72 m/h 0 %
23:00:00 clear sky 10.810 10.810 10.810 54 1.6 m/h 0 %
20-Jan-2021 (Wed)
02:00:00 clear sky 9.410 9.410 9.410 57 1.64 m/h 0 %
05:00:00 clear sky 8.160 8.160 8.160 56 1.74 m/h 0 %
08:00:00 clear sky 9.470 9.470 9.470 54 1.26 m/h 0 %
11:00:00 clear sky 17.870 17.870 17.870 34 2.26 m/h 0 %
14:00:00 clear sky 21.900 21.900 21.900 27 3.69 m/h 0 %
17:00:00 clear sky 16.930 16.930 16.930 38 2.71 m/h 0 %
20:00:00 clear sky 12.110 12.110 12.110 43 1.44 m/h 0 %
23:00:00 clear sky 10.400 10.400 10.400 46 1.7 m/h 0 %
21-Jan-2021 (Thu)
02:00:00 clear sky 8.760 8.760 8.760 50 1.85 m/h 0 %
05:00:00 clear sky 7.480 7.480 7.480 55 1.83 m/h 0 %
08:00:00 clear sky 9.130 9.130 9.130 51 1.38 m/h 0 %
11:00:00 clear sky 18.200 18.200 18.200 29 1.24 m/h 0 %
14:00:00 clear sky 21.770 21.770 21.770 24 2.99 m/h 0 %
17:00:00 clear sky 16.750 16.750 16.750 36 1.94 m/h 0 %
20:00:00 few clouds 11.970 11.970 11.970 42 0.93 m/h 0 %
23:00:00 scattered clouds 10.970 10.970 10.970 45 0.91 m/h 0 %
22-Jan-2021 (Fri)
02:00:00 overcast clouds 9.980 9.980 9.980 49 1.72 m/h 0 %
05:00:00 overcast clouds 9.340 9.340 9.340 51 1.64 m/h 0 %
08:00:00 overcast clouds 10.370 10.370 10.370 50 2 m/h 0 %
11:00:00 overcast clouds 18.160 18.160 18.160 33 2.38 m/h 0 %
14:00:00 overcast clouds 21.570 21.570 21.570 26 2.05 m/h 0 %
17:00:00 overcast clouds 17.340 17.340 17.340 41 2.45 m/h 0 %
20:00:00 overcast clouds 14.160 14.160 14.160 45 3.48 m/h 0 %
23:00:00 overcast clouds 12.740 12.740 12.740 46 3.6 m/h 0 %
23-Jan-2021 (Sat)
02:00:00 overcast clouds 12.090 12.090 12.090 45 4.08 m/h 0 %
05:00:00 overcast clouds 10.890 10.890 10.890 48 3.46 m/h 0 %

Famous Cities (60)